Latest Coastal Weather Observations for Warrnambool

IDV60701

Issued at 10:15 pm EDT Friday 28 November 2014 (issued every 10 minutes, with the page automatically refreshed every 10 minutes)

About coastal observations | Map of coastal stations | Coastal observations for VIC | Marine services | Other Formats
Station Details ID: 090186 Name: WARRNAMBOOL AIRPORT NDB Lat: -38.29 Lon: 142.45 Height: 70.8 m
Data from the previous 72 hours. | See also: Recent months at Warrnambool
Date/Time
EDT
Temp

°C
Wind Pressure Rain
since 9am
mm
Weather Cloud Vis
km
Sea
Height
m
Swell
Dir
 
Speed
knots
Gust
knots
hPa Trend Height
m
Period
s
Dir
28/10:00pm 11.8 SE 9 13 1020.2 - 0.0 - - - - - - -
28/09:30pm 12.2 SE 12 15 1020.0 - 0.0 - - - - - - -
28/09:00pm 12.5 SE 13 17 1020.2 - 0.0 - - - - - - -
28/08:30pm 12.9 SSE 15 22 1020.0 - 0.0 - - - - - - -
28/08:00pm 13.7 SSE 17 24 1019.8 - 0.0 - - - - - - -
28/07:30pm 14.4 SSE 16 21 1019.8 - 0.0 - - - - - - -
28/07:00pm 14.9 SSE 18 23 1019.7 - 0.0 - - - - - - -
28/06:30pm 15.5 SSE 19 25 1019.6 - 0.0 - - - - - - -
28/06:00pm 16.9 SSE 18 23 1019.5 - 0.0 - - - - - - -
28/05:30pm 16.5 SSE 20 26 1019.6 - 0.0 - - - - - - -
28/05:00pm 17.3 SSE 19 24 1019.8 - 0.0 - - - - - - -
28/04:30pm 17.8 SSE 18 23 1019.7 - 0.0 - - - - - - -
28/04:00pm 18.4 SSE 17 23 1020.0 - 0.0 - - - - - - -
28/03:30pm 18.1 S 18 22 1020.1 - 0.0 - - - - - - -
28/03:00pm 19.3 SSE 15 20 1020.3 - 0.0 - - - - - - -
28/02:30pm 19.4 SSE 16 20 1020.6 - 0.0 - - - - - - -
28/02:00pm 18.8 SSE 16 21 1020.9 - 0.0 - - - - - - -
28/01:30pm 18.5 SSE 15 19 1021.6 - 0.0 - - - - - - -
28/01:00pm 18.3 SSE 13 17 1022.0 - 0.0 - - - - - - -
28/12:30pm 17.7 SSE 13 19 1022.6 - 0.0 - - - - - - -
28/12:00pm 18.7 S 12 19 1022.8 - 0.0 - - - - - - -
28/11:30am 18.3 ESE 8 15 1023.1 - 0.0 - - - - - - -
28/11:00am 16.9 SE 7 12 1023.5 - 0.0 - - - - - - -
28/10:30am 16.7 SE 8 16 1023.7 - 0.0 - - - - - - -
28/10:00am 15.8 SE 8 13 1023.8 - 0.0 - - - - - - -
28/09:30am 14.0 SE 9 13 1024.2 - 0.0 - - - - - - -
28/09:00am 13.8 E 10 16 1024.2 - 0.0 - - - - - - -
28/08:30am 13.3 E 8 12 1024.2 - 0.0 - - - - - - -
28/08:00am 11.9 E 6 9 1024.5 - 0.0 - - - - - - -
28/07:30am 10.8 E 4 6 1024.6 - 0.0 - - - - - - -
28/07:00am 9.9 E 4 6 1024.1 - 0.0 - - - - - - -
28/06:30am 9.3 ENE 4 5 1024.0 - 0.0 - - - - - - -
28/06:00am 9.1 E 2 4 1023.8 - 0.0 - - - - - - -
28/05:30am 8.8 E 1 4 1023.6 - 0.0 - - - - - - -
28/05:00am 9.0 ESE 3 5 1023.5 - 0.0 - - - - - - -
28/04:30am 7.6 SE 2 4 1023.6 - 0.0 - - - - - - -
28/04:00am 6.1 CALM 0 0 1023.5 - 0.0 - - - - - - -
28/03:30am 5.4 ESE 1 3 1023.4 - 0.0 - - - - - - -
28/03:00am 6.0 CALM 0 3 1023.3 - 0.0 - - - - - - -
28/02:30am 7.3 ESE 3 5 1023.3 - 0.0 - - - - - - -
28/02:00am 7.2 SE 3 4 1023.4 - 0.0 - - - - - - -
28/01:30am 7.8 E 2 4 1023.5 - 0.0 - - - - - - -
28/01:00am 8.2 ESE 2 5 1023.8 - 0.0 - - - - - - -
28/12:30am 9.1 E 5 7 1023.8 - 0.0 - - - - - - -
28/12:00am 9.4 E 5 6 1024.1 - 0.0 - - - - - - -
 
Date/Time
EDT
Temp

°C
Wind Pressure Rain
since 9am
mm
Weather Cloud Vis
km
Sea
Height
m
Swell
Dir
 
Speed
knots
Gust
knots
hPa Trend Height
m
Period
s
Dir
27/11:30pm 10.0 ESE 4 7 1024.5 - 0.0 - - - - - - -
27/11:00pm 10.5 SE 5 8 1024.7 - 0.0 - - - - - - -
27/10:30pm 10.9 SE 7 10 1024.8 - 0.0 - - - - - - -
27/10:00pm 11.2 SE 10 14 1024.7 - 0.0 - - - - - - -
27/09:30pm 11.3 SE 10 14 1024.7 - 0.0 - - - - - - -
27/09:00pm 11.4 SSE 10 15 1024.6 - 0.0 - - - - - - -
27/08:30pm 12.3 SE 11 14 1024.3 - 0.0 - - - - - - -
27/08:00pm 13.0 SE 13 18 1024.3 - 0.0 - - - - - - -
27/07:30pm 13.6 SSE 16 21 1024.4 - 0.0 - - - - - - -
27/07:00pm 14.3 SSE 17 22 1024.6 - 0.0 - - - - - - -
27/06:30pm 14.9 SSE 17 23 1024.4 - 0.0 - - - - - - -
27/06:00pm 15.2 SSE 16 20 1024.5 - 0.0 - - - - - - -
27/05:30pm 15.2 S 17 23 1024.8 - 0.0 - - - - - - -
27/05:00pm 16.3 S 17 22 1024.8 - 0.0 - - - - - - -
27/04:30pm 15.9 SSE 17 23 1025.0 - 0.0 - - - - - - -
27/04:00pm 16.1 SSE 16 21 1025.3 - 0.0 - - - - - - -
27/03:30pm 16.9 S 16 21 1025.3 - 0.0 - - - - - - -
27/03:00pm 17.4 S 16 21 1025.4 - 0.0 - - - - - - -
27/02:30pm 16.5 SSE 16 23 1025.5 - 0.0 - - - - - - -
27/02:00pm 17.3 SSE 15 21 1025.7 - 0.0 - - - - - - -
27/01:30pm 17.4 SSE 15 19 1026.0 - 0.0 - - - - - - -
27/01:00pm 16.2 SSE 14 18 1026.0 - 0.0 - - - - - - -
27/12:30pm 17.2 S 14 20 1026.2 - 0.0 - - - - - - -
27/12:00pm 16.8 SSE 14 22 1026.2 - 0.0 - - - - - - -
27/11:30am 16.1 SSE 13 19 1026.5 - 0.0 - - - - - - -
27/11:00am 15.8 SSE 12 17 1026.6 - 0.0 - - - - - - -
27/10:30am 15.3 SE 11 17 1026.6 - 0.0 - - - - - - -
27/10:00am 15.7 SSE 12 18 1026.7 - 0.0 - - - - - - -
27/09:30am 14.4 S 11 14 1026.9 - 0.0 - - - - - - -
27/09:00am 13.9 SE 9 13 1026.9 - 0.0 - - - - - - -
27/08:30am 13.7 SE 8 14 1026.8 - 0.0 - - - - - - -
27/08:00am 13.0 SE 8 11 1026.6 - 0.0 - - - - - - -
27/07:30am 12.5 SE 7 9 1026.5 - 0.0 - - - - - - -
27/07:00am 11.9 ESE 3 5 1026.3 - 0.0 - - - - - - -
27/06:30am 11.7 SE 4 7 1026.0 - 0.0 - - - - - - -
27/06:00am 11.5 ESE 3 5 1025.7 - 0.0 - - - - - - -
27/05:30am 11.6 ESE 4 6 1025.5 - 0.0 - - - - - - -
27/05:00am 11.5 E 5 7 1025.2 - 0.0 - - - - - - -
27/04:30am 11.5 ESE 3 5 1024.9 - 0.0 - - - - - - -
27/04:00am 11.5 CALM 0 2 1024.6 - 0.0 - - - - - - -
27/03:30am 11.6 E 3 4 1024.6 - 0.0 - - - - - - -
27/03:00am 11.9 SE 5 9 1024.6 - 0.0 - - - - - - -
27/02:30am 11.7 SE 4 5 1024.8 - 0.0 - - - - - - -
27/02:00am 11.9 SE 6 8 1025.0 - 0.0 - - - - - - -
27/01:30am 11.9 SE 5 8 1025.1 - 0.0 - - - - - - -
27/01:00am 12.0 SE 5 7 1025.2 - 0.0 - - - - - - -
27/12:30am 11.9 SSE 6 8 1025.4 - 0.0 - - - - - - -
27/12:00am 12.4 SSE 8 10 1025.5 - 0.0 - - - - - - -
 
Date/Time
EDT
Temp

°C
Wind Pressure Rain
since 9am
mm
Weather Cloud Vis
km
Sea
Height
m
Swell
Dir
 
Speed
knots
Gust
knots
hPa Trend Height
m
Period
s
Dir
26/11:30pm 12.6 SSE 9 14 1025.4 - 0.0 - - - - - - -
26/11:00pm 12.4 SSE 9 11 1025.5 - 0.0 - - - - - - -
26/10:30pm 12.5 S 9 11 1025.3 - 0.0 - - - - - - -
26/10:00pm 12.7 S 8 10 1025.0 - 0.0 - - - - - - -
26/09:30pm 12.6 S 8 11 1024.7 - 0.0 - - - - - - -
26/09:00pm 12.9 S 11 13 1024.6 - 0.0 - - - - - - -
26/08:30pm 13.2 S 11 14 1024.4 - 0.0 - - - - - - -
26/08:00pm 13.8 S 10 13 1024.3 - 0.0 - - - - - - -
26/07:30pm 13.9 S 12 15 1024.2 - 0.0 - - - - - - -
26/07:00pm 14.4 S 12 15 1023.9 - 0.0 - - - - - - -
26/06:30pm 14.8 S 11 14 1023.6 - 0.0 - - - - - - -
26/06:00pm 14.9 S 13 17 1023.4 - 0.0 - - - - - - -
26/05:30pm 15.7 S 13 18 1023.3 - 0.0 - - - - - - -
26/05:00pm 16.3 S 14 18 1023.2 - 0.0 - - - - - - -
26/04:30pm 16.7 S 14 18 1023.2 - 0.0 - - - - - - -
26/04:00pm 16.5 S 13 18 1023.0 - 0.0 - - - - - - -
26/03:30pm 17.6 S 14 19 1023.0 - 0.0 - - - - - - -
26/03:00pm 16.6 S 14 19 1022.9 - 0.0 - - - - - - -
26/02:30pm 17.0 S 13 18 1022.8 - 0.0 - - - - - - -
26/02:00pm 17.5 S 14 17 1022.9 - 0.0 - - - - - - -
26/01:30pm 16.0 SW 19 24 1022.7 - 0.0 - - - - - - -
26/01:00pm 17.1 SW 17 21 1022.8 - 0.0 - - - - - - -
26/12:30pm 16.9 SW 15 21 1022.7 - 0.0 - - - - - - -
26/12:00pm 15.7 WSW 16 25 1022.7 - 0.0 - - - - - - -
26/11:57am 16.4 WSW 15 25 1022.6 - 0.0 - - - - - - -
26/11:30am 17.4 SW 14 20 1022.5 - 0.0 - - - - - - -
26/11:00am 18.0 WSW 15 18 1022.4 - 0.0 - - - - - - -
26/10:30am 16.9 W 14 21 1022.4 - 0.0 - - - - - - -
26/10:00am 16.1 W 12 16 1022.3 - 0.0 - - - - - - -
26/09:30am 15.3 W 9 12 1022.1 - 0.0 - - - - - - -
26/09:00am 14.8 W 10 13 1022.0 - 0.0 - - - - - - -
26/08:30am 14.4 WNW 8 11 1021.8 - 0.0 - - - - - - -
26/08:00am 13.0 WNW 7 9 1021.6 - 0.0 - - - - - - -
26/07:30am 12.3 WNW 7 10 1021.4 - 0.0 - - - - - - -
26/07:00am 11.7 NW 6 8 1021.2 - 0.0 - - - - - - -
26/06:30am 11.3 WNW 6 9 1021.0 - 0.0 - - - - - - -
26/06:00am 11.0 NW 7 9 1020.6 - 0.0 - - - - - - -
26/05:30am 11.0 NW 8 9 1020.5 - 0.0 - - - - - - -
26/05:00am 11.1 NW 7 9 1020.3 - 0.0 - - - - - - -
26/04:30am 11.0 NW 7 9 1020.2 - 0.0 - - - - - - -
26/04:00am 11.3 WNW 9 13 1020.4 - 0.0 - - - - - - -
26/03:30am 11.2 NW 6 7 1020.3 - 0.0 - - - - - - -
26/03:00am 11.0 NW 6 8 1020.5 - 0.0 - - - - - - -
26/02:30am 10.8 NW 6 8 1020.6 - 0.0 - - - - - - -
26/02:00am 10.8 NW 7 8 1021.0 - 0.0 - - - - - - -
26/01:30am 10.5 NNW 7 8 1021.4 - 0.0 - - - - - - -
26/01:00am 10.3 NW 6 7 1021.5 - 0.0 - - - - - - -
26/12:30am 9.6 NW 7 7 1021.5 - 0.0 - - - - - - -
26/12:00am 9.2 NW 6 7 1021.7 - 0.0 - - - - - - -
 
Date/Time
EDT
Temp

°C
Wind Pressure Rain
since 9am
mm
Weather Cloud Vis
km
Sea
Height
m
Swell
Dir
 
Speed
knots
Gust
knots
hPa Trend Height
m
Period
s
Dir
25/11:30pm 10.5 WNW 6 8 1021.9 - 0.0 - - - - - - -
25/11:00pm 9.1 NW 6 7 1022.1 - 0.0 - - - - - - -
25/10:30pm 9.2 WNW 6 7 1022.0 - 0.0 - - - - - - -

Other Formats:

Comma delimited format used in spreadsheet applications
http://www.bom.gov.au/fwo/IDV60701/IDV60701.94837.axf

JavaScript Object Notation format (JSON) in row-major order
http://www.bom.gov.au/fwo/IDV60701/IDV60701.94837.json